createdAt,value
2019-05-17T05:13:24.536Z,20
2019-05-17T05:19:05.578Z,20.2
2019-05-17T05:23:52.727Z,20.3
2019-05-17T05:28:41.947Z,20.3
2019-05-17T05:33:28.858Z,20.4
2019-05-17T05:39:35.221Z,20.5
2019-05-17T05:44:22.200Z,20.7
2019-05-17T05:49:08.873Z,20.7
2019-05-17T05:59:32.011Z,20.8
2019-05-17T06:04:22.321Z,21
2019-05-17T06:09:11.838Z,21
2019-05-17T06:14:01.462Z,21
2019-05-17T06:20:11.628Z,21.2
2019-05-17T06:24:59.043Z,21.2
2019-05-17T06:29:47.121Z,21.3
2019-05-17T06:34:34.884Z,21.3
2019-05-17T06:40:32.352Z,21.4
2019-05-17T06:45:19.218Z,21.4
2019-05-17T06:50:06.179Z,21.5
2019-05-17T06:54:52.891Z,21.5
2019-05-17T06:59:39.949Z,21.6
2019-05-17T07:04:44.372Z,21.6
2019-05-17T07:09:31.718Z,21.7
2019-05-17T07:14:20.037Z,21.7
2019-05-17T07:19:07.208Z,21.8
2019-05-17T07:28:21.743Z,21.9
2019-05-17T07:33:10.113Z,21.9
2019-05-17T07:37:59.564Z,22
2019-05-17T07:42:47.014Z,22
2019-05-17T07:47:33.849Z,22
2019-05-17T07:57:00.390Z,22.1
2019-05-17T08:01:47.717Z,22.1
2019-05-17T08:06:34.755Z,22.2
2019-05-17T08:11:21.748Z,22.2
2019-05-17T08:16:10.315Z,22.3
2019-05-17T08:20:59.776Z,22.3
2019-05-17T08:28:02.167Z,22.3
2019-05-17T08:32:50.548Z,22.4
2019-05-17T08:37:41.866Z,22.4
2019-05-17T08:42:30.893Z,22.4
2019-05-17T08:47:20.895Z,22.5
2019-05-17T08:52:09.902Z,22.5
2019-05-17T08:56:57.148Z,22.6
2019-05-17T09:01:43.950Z,22.6
2019-05-17T09:07:05.523Z,22.7
2019-05-17T09:11:52.520Z,22.7
2019-05-17T09:16:40.227Z,22.7
2019-05-17T09:21:31.378Z,22.7
2019-05-17T09:26:19.993Z,22.8
2019-05-17T09:31:07.338Z,22.9
2019-05-17T09:35:54.096Z,22.9
2019-05-17T09:40:40.995Z,22.9
2019-05-17T09:45:30.646Z,23
2019-05-17T09:50:20.044Z,23.1
2019-05-17T09:55:09.283Z,23.1
2019-05-17T09:59:57.213Z,23.2
2019-05-17T10:04:44.356Z,23.3
2019-05-17T10:09:31.146Z,23.3
2019-05-17T10:16:48.698Z,23.3
2019-05-17T10:21:36.297Z,23.4
2019-05-17T10:26:23.416Z,23.5
2019-05-17T10:31:11.777Z,23.5
2019-05-17T10:36:00.504Z,23.6
2019-05-17T10:40:50.048Z,23.6
2019-05-17T10:45:37.015Z,23.7
2019-05-17T10:50:24.552Z,23.7
2019-05-17T10:55:11.909Z,23.8
2019-05-17T10:59:59.247Z,23.8
2019-05-17T11:04:46.133Z,24
2019-05-17T11:09:34.084Z,24
2019-05-17T11:14:21.028Z,24
2019-05-17T11:19:08.806Z,24.1
2019-05-17T11:23:56.061Z,24.2
2019-05-17T11:28:43.238Z,24.3
2019-05-17T11:33:30.347Z,24.3
2019-05-17T11:38:17.519Z,24.4
2019-05-17T11:43:06.204Z,24.5
2019-05-17T11:47:53.709Z,24.5
2019-05-17T11:52:42.669Z,24.5
2019-05-17T11:57:32.144Z,24.6
2019-05-17T12:02:21.502Z,24.6
2019-05-17T12:07:08.797Z,24.7
2019-05-17T12:11:56.068Z,24.8
2019-05-17T12:16:43.719Z,24.9
2019-05-17T12:21:30.489Z,24.9
2019-05-17T12:26:19.971Z,25
2019-05-17T12:31:07.225Z,25
2019-05-17T12:35:55.169Z,25
2019-05-17T12:40:42.381Z,25
2019-05-17T12:45:29.385Z,25.1
2019-05-17T12:50:16.270Z,25.1
2019-05-17T12:55:03.200Z,25.1
2019-05-17T12:59:50.372Z,25.1
2019-05-17T13:04:37.297Z,25.1
2019-05-17T13:09:24.949Z,25.1
2019-05-17T13:14:12.451Z,25.2
2019-05-17T13:18:59.575Z,25.2
2019-05-17T13:23:47.621Z,25.2
2019-05-17T13:30:23.409Z,25.2
2019-05-17T13:35:10.972Z,25.2
2019-05-17T13:39:57.949Z,25.2
2019-05-17T13:44:45.227Z,25.2
2019-05-17T13:49:34.329Z,25.2
2019-05-17T13:54:21.390Z,25.2
2019-05-17T14:03:03.717Z,25.3
2019-05-17T14:07:51.039Z,25.3
2019-05-17T14:12:38.557Z,25.3
2019-05-17T14:17:25.625Z,25.3
2019-05-17T14:22:14.462Z,25.3
2019-05-17T14:27:01.959Z,25.3
2019-05-17T14:31:50.268Z,25.3
2019-05-17T14:36:37.169Z,25.4
2019-05-17T14:41:23.883Z,25.6
2019-05-17T14:46:12.364Z,25.6
2019-05-17T14:50:59.307Z,25.6
2019-05-17T14:55:46.787Z,25.6
2019-05-17T15:00:33.896Z,25.6
2019-05-17T15:05:21.847Z,25.6
2019-05-17T15:10:08.981Z,25.6
2019-05-17T15:14:56.037Z,25.6
2019-05-17T15:19:42.913Z,25.6
2019-05-17T15:24:31.844Z,25.6
2019-05-17T15:29:18.987Z,25.7
2019-05-17T15:34:06.472Z,25.7
2019-05-17T15:38:53.272Z,25.7
2019-05-17T15:43:40.107Z,25.6
2019-05-17T15:48:27.477Z,25.6
2019-05-17T15:53:15.040Z,25.6
2019-05-17T15:58:02.299Z,25.5
2019-05-17T16:02:51.122Z,25.5
2019-05-17T16:07:38.453Z,25.5
2019-05-17T16:12:27.606Z,25.4
2019-05-17T16:17:14.458Z,25.4
2019-05-17T16:22:01.779Z,25.3
2019-05-17T16:26:49.002Z,25.3
2019-05-17T16:31:35.995Z,25.2
2019-05-17T16:36:22.945Z,25.2
2019-05-17T16:41:09.775Z,25.1
2019-05-17T16:45:56.633Z,25.1
2019-05-17T16:50:43.917Z,25.1
2019-05-17T16:55:30.884Z,25
2019-05-17T17:00:18.556Z,25
2019-05-17T17:05:06.940Z,25
2019-05-17T17:09:55.176Z,25
2019-05-17T17:14:42.334Z,24.9
2019-05-17T17:19:30.482Z,24.9
2019-05-17T17:24:17.623Z,24.9
2019-05-17T17:29:05.428Z,24.9
2019-05-17T17:33:54.227Z,24.9
2019-05-17T17:38:41.489Z,24.9
2019-05-17T17:43:28.524Z,24.8
2019-05-17T17:48:15.293Z,24.8
2019-05-17T17:53:02.826Z,24.8
2019-05-17T17:57:50.131Z,24.8
2019-05-17T18:02:37.835Z,24.8
2019-05-17T18:07:25.065Z,24.8
2019-05-17T18:12:12.114Z,24.8
2019-05-17T18:17:00.205Z,24.8
2019-05-17T18:21:48.043Z,24.9
2019-05-17T18:26:35.142Z,24.9
2019-05-17T18:31:22.469Z,24.9
2019-05-17T18:36:09.206Z,24.8
2019-05-17T18:41:27.250Z,24.8
2019-05-17T18:46:14.077Z,24.9
2019-05-17T18:51:01.347Z,24.8
2019-05-17T18:55:48.317Z,24.8
2019-05-17T19:00:37.074Z,24.9
2019-05-17T19:05:24.527Z,24.9
2019-05-17T19:10:12.486Z,24.9
2019-05-17T19:20:14.419Z,24.9
2019-05-17T19:25:01.660Z,24.9
2019-05-17T19:29:48.550Z,24.9
2019-05-17T19:34:36.420Z,24.9
2019-05-17T19:39:23.697Z,24.9
2019-05-17T19:44:11.100Z,24.9
2019-05-17T19:49:13.839Z,24.9
2019-05-17T19:54:00.807Z,24.9
2019-05-17T19:58:48.025Z,24.8
2019-05-17T20:03:34.955Z,24.8
2019-05-17T20:08:21.845Z,24.8
2019-05-17T20:13:09.007Z,24.8
2019-05-17T20:20:02.807Z,24.8
2019-05-17T20:24:49.602Z,24.8
2019-05-17T20:29:36.648Z,24.8
2019-05-17T20:34:23.467Z,24.6
2019-05-17T20:39:11.139Z,24.6
2019-05-17T20:46:02.757Z,24.6
2019-05-17T20:50:49.977Z,24.7
2019-05-17T20:55:37.049Z,24.7
2019-05-17T21:00:24.141Z,24.7
2019-05-17T21:09:20.624Z,24.8
2019-05-17T21:14:07.625Z,24.8
2019-05-17T21:18:54.997Z,24.8
2019-05-17T21:23:42.047Z,24.9
2019-05-17T21:28:28.750Z,24.9
2019-05-17T21:34:03.659Z,24.9
2019-05-17T21:38:50.850Z,24.9
2019-05-17T21:43:38.043Z,24.9
2019-05-17T21:48:25.390Z,25
2019-05-17T21:57:07.417Z,25
2019-05-17T22:01:55.417Z,25
2019-05-17T22:06:42.445Z,25
2019-05-17T22:11:29.522Z,25
2019-05-17T22:19:46.860Z,25
2019-05-17T22:24:34.131Z,25.1
2019-05-17T22:29:21.028Z,25.1
2019-05-17T22:34:08.252Z,25.1
2019-05-17T22:42:52.668Z,25.1
2019-05-17T22:47:39.564Z,25.2
2019-05-17T22:52:28.678Z,25.2
2019-05-17T22:57:18.186Z,25.2
2019-05-17T23:05:45.944Z,25.3
2019-05-17T23:10:35.145Z,25.3
2019-05-17T23:15:22.598Z,25.3
2019-05-17T23:20:09.503Z,25.3
2019-05-17T23:27:01.965Z,25.4
2019-05-17T23:31:49.237Z,25.4
2019-05-17T23:36:38.367Z,25.4
2019-05-17T23:41:25.171Z,25.5
2019-05-17T23:47:16.536Z,25.5
2019-05-17T23:52:03.784Z,25.5
2019-05-17T23:56:50.825Z,25.5
